Latest Weather Observations for Lucinda

IDQ60801

Issued at 9:32 pm EST Monday 6 July 2015 (issued every 30 minutes, with the page automatically refreshed every 10 minutes)

About weather observations | Map of weather stations | Latest weather observations for QLD | Other Formats
Station Details ID: 032141 Name: LUCINDA POINT Lat: -18.52 Lon: 146.39 Height: 10.0 m
Data from the previous 72 hours. | See also: Recent months for locations in Queensland
Date/Time
EST
Temp
°C
App
Temp
°C
Dew
Point
Rel
Hum
%
Delta-T
°C
Wind Press
QNH
hPa
Press
MSL
hPa
Rain
since 9 am
mm
Dir
 
Spd
km/h
Gust
km/h
Spd
kts
Gust
kts
06/09:00pm 21.9 23.0 17.9 78 2.5 E 9 13 5 7 1016.9 1016.9 0.0
06/08:30pm 22.0 22.9 18.4 80 2.3 E 11 15 6 8 1016.9 1016.9 0.0
06/08:00pm 21.9 22.7 18.1 79 2.4 E 11 15 6 8 1016.7 1016.7 0.0
06/07:30pm 21.9 22.4 18.3 80 2.2 ENE 13 17 7 9 1016.3 1016.3 0.0
06/07:00pm 21.8 21.8 18.0 79 2.4 E 15 19 8 10 1016.1 1016.1 0.0
06/06:30pm 21.6 21.9 18.8 84 1.8 ESE 15 19 8 10 1015.8 1015.8 0.0
06/06:00pm 21.6 22.2 18.6 83 1.9 ESE 13 20 7 11 1015.7 1015.7 0.0
06/05:30pm 21.9 21.6 18.3 80 2.2 ESE 17 22 9 12 1015.7 1015.7 0.0
06/05:00pm 22.8 23.8 18.6 77 2.6 ESE 11 17 6 9 1015.5 1015.5 0.0
06/04:30pm 22.6 23.0 18.2 76 2.8 ESE 13 19 7 10 1015.4 1015.4 0.0
06/04:00pm 22.6 22.7 17.5 73 3.2 ESE 13 19 7 10 1015.4 1015.4 0.0
06/03:30pm 22.8 22.8 17.3 71 3.4 ESE 13 19 7 10 1015.6 1015.6 0.0
06/03:00pm 22.2 23.0 18.2 78 2.5 S 11 15 6 8 1015.7 1015.7 0.0
06/02:30pm 21.7 21.8 17.5 77 2.6 S 13 17 7 9 1015.8 1015.8 0.0
06/02:00pm 21.7 21.2 17.9 79 2.4 S 17 20 9 11 1016.1 1016.1 0.0
06/01:30pm 21.4 20.4 17.6 79 2.3 S 19 20 10 11 1016.4 1016.4 0.0
06/01:00pm 21.4 20.3 17.4 78 2.5 S 19 20 10 11 1016.9 1016.9 0.0
06/12:30pm 21.5 20.5 17.5 78 2.5 S 19 22 10 12 1017.5 1017.5 0.0
06/12:00pm 21.4 20.2 17.4 78 2.5 S 20 24 11 13 1018.0 1018.0 0.0
06/11:30am 21.4 20.6 18.0 81 2.1 SSW 19 22 10 12 1018.3 1018.3 0.0
06/11:00am 21.2 20.7 17.8 81 2.1 SSW 17 22 9 12 1018.5 1018.5 0.0
06/10:30am 21.0 20.5 17.8 82 2.0 SSW 17 20 9 11 1018.6 1018.6 0.0
06/10:00am 21.1 20.6 17.7 81 2.1 SSW 17 20 9 11 1018.6 1018.6 0.0
06/09:30am 20.7 20.7 18.1 85 1.6 SSW 15 19 8 10 1018.8 1018.8 0.0
06/09:00am 20.2 20.7 18.3 89 1.2 SW 13 17 7 9 1018.5 1018.5 -
06/08:30am 19.5 19.6 17.5 88 1.2 SW 13 15 7 8 1018.3 1018.3 -
06/08:00am 19.9 19.7 17.7 87 1.3 SW 15 19 8 10 1018.0 1018.0 -
06/07:30am 19.5 18.9 17.6 89 1.2 WSW 17 20 9 11 1017.8 1017.8 -
06/07:00am 21.1 20.0 17.7 81 2.1 S 20 26 11 14 1017.5 1017.5 -
06/06:30am 21.2 19.9 18.2 83 1.9 S 22 26 12 14 1017.2 1017.2 -
06/06:00am 21.2 20.2 18.0 82 2.0 S 20 24 11 13 1017.0 1017.0 -
06/05:30am 21.2 20.2 18.0 82 2.0 S 20 22 11 12 1016.8 1016.8 -
06/05:00am 21.2 20.4 18.0 82 2.0 S 19 24 10 13 1017.0 1017.0 -
06/04:30am 21.6 21.4 17.6 78 2.5 S 15 20 8 11 1016.9 1016.9 -
06/04:00am 21.7 20.8 17.7 78 2.5 SE 19 26 10 14 1016.9 1016.9 -
06/03:30am 21.7 22.5 18.1 80 2.2 SSE 11 19 6 10 1016.9 1016.9 -
06/03:00am 21.6 22.0 18.2 81 2.1 S 13 19 7 10 1016.9 1016.9 -
06/02:30am 21.1 21.7 17.7 81 2.1 S 11 17 6 9 1017.1 1017.1 -
06/02:00am 21.6 21.5 17.8 79 2.3 S 15 20 8 11 1017.4 1017.4 -
06/01:30am 21.7 22.1 18.1 80 2.2 SSE 13 17 7 9 1017.7 1017.7 -
06/01:00am 21.8 21.3 17.8 78 2.5 SE 17 24 9 13 1018.0 1018.0 -
06/12:30am 21.9 21.0 18.1 79 2.4 SE 20 26 11 14 1018.0 1018.0 -
06/12:00am 22.1 21.2 18.3 79 2.4 SE 20 26 11 14 1017.9 1017.9 -
 
Date/Time
EST
Temp
°C
App
Temp
°C
Dew
Point
Rel
Hum
%
Delta-T
°C
Wind Press
QNH
hPa
Press
MSL
hPa
Rain
since 9 am
mm
Dir
 
Spd
km/h
Gust
km/h
Spd
kts
Gust
kts
05/11:30pm 22.0 20.3 18.0 78 2.5 SE 24 28 13 15 1018.1 1018.1 -
05/11:00pm 22.1 21.0 18.7 81 2.1 SE 22 26 12 14 1018.2 1018.2 -
05/09:30pm 22.2 20.7 17.8 76 2.7 SE 22 26 12 14 1018.4 1018.4 0.0
05/09:00pm 22.2 21.9 18.2 78 2.5 SE 17 22 9 12 1018.4 1018.4 0.0
05/08:30pm 22.0 22.3 18.0 78 2.5 SE 13 20 7 11 1018.2 1018.2 0.0
05/08:00pm 22.0 22.5 18.4 80 2.3 ESE 13 20 7 11 1018.1 1018.1 0.0
05/07:30pm 22.0 21.8 17.6 76 2.7 ESE 15 22 8 12 1017.7 1017.7 0.0
05/07:00pm 21.9 22.2 17.9 78 2.5 ESE 13 22 7 12 1017.3 1017.3 0.0
05/06:30pm 21.8 21.5 18.2 80 2.2 ESE 17 24 9 13 1017.1 1017.1 0.0
05/06:00pm 21.9 21.2 18.3 80 2.2 ESE 19 28 10 15 1017.0 1017.0 0.0
05/05:30pm 22.0 20.5 17.8 77 2.6 ESE 22 28 12 15 1016.8 1016.8 0.0
05/05:00pm 21.9 19.9 17.5 76 2.7 ESE 24 30 13 16 1016.7 1016.7 0.0
05/04:30pm 22.1 20.1 17.5 75 2.8 ESE 24 32 13 17 1016.6 1016.6 0.0
05/04:00pm 21.8 20.3 17.8 78 2.5 ESE 22 30 12 16 1016.6 1016.6 0.0
05/03:30pm 21.9 21.5 18.1 79 2.4 SE 17 26 9 14 1016.5 1016.5 0.0
05/03:00pm 21.8 20.9 17.8 78 2.5 S 19 22 10 12 1016.7 1016.7 0.0
05/02:30pm 21.5 20.7 18.1 81 2.1 S 19 22 10 12 1017.0 1017.0 0.0
05/02:00pm 21.6 21.0 17.6 78 2.5 S 17 20 9 11 1017.3 1017.3 0.0
05/01:30pm 21.4 20.2 17.4 78 2.5 S 20 24 11 13 1017.6 1017.6 0.0
05/01:00pm 21.4 20.4 17.6 79 2.3 S 19 24 10 13 1017.9 1017.9 0.0
05/12:30pm 20.9 19.6 17.3 80 2.2 S 20 24 11 13 1018.2 1018.2 0.0
05/12:00pm 20.8 19.1 17.2 80 2.2 S 22 28 12 15 1018.5 1018.5 0.0
05/11:30am 20.7 18.6 17.1 80 2.2 S 24 28 13 15 1018.9 1018.9 0.0
05/11:00am 20.8 19.1 17.2 80 2.2 S 22 26 12 14 1019.2 1019.2 0.0
05/10:30am 20.8 19.0 17.0 79 2.3 S 22 28 12 15 1019.3 1019.3 0.0
05/10:00am 20.7 18.5 16.9 79 2.3 S 24 30 13 16 1019.3 1019.3 0.0
05/09:30am 20.7 19.0 17.3 81 2.1 S 22 26 12 14 1019.3 1019.3 0.0
05/09:00am 20.6 19.4 17.0 80 2.2 S 19 24 10 13 1019.0 1019.0 0.0
05/08:30am 20.4 18.6 17.0 81 2.1 S 22 28 12 15 1018.7 1018.7 0.0
05/08:00am 20.2 18.0 17.0 82 1.9 S 24 32 13 17 1018.5 1018.5 0.0
05/07:30am 20.2 17.4 17.4 84 1.7 S 28 33 15 18 1018.2 1018.2 0.0
05/07:00am 20.5 17.8 17.5 83 1.8 S 28 33 15 18 1017.8 1017.8 0.0
05/06:30am 21.0 20.4 17.6 81 2.1 SE 17 26 9 14 1017.5 1017.5 0.0
05/06:00am 20.8 20.7 17.8 83 1.8 S 15 20 8 11 1017.2 1017.2 0.0
05/05:30am 20.8 19.8 17.6 82 2.0 S 19 22 10 12 1017.1 1017.1 0.0
05/05:00am 21.0 20.1 17.8 82 2.0 S 19 24 10 13 1017.0 1017.0 0.0
05/04:30am 21.2 20.3 18.2 83 1.9 S 20 28 11 15 1016.9 1016.9 0.0
05/04:00am 21.5 21.3 17.5 78 2.5 SSE 15 22 8 12 1016.9 1016.9 0.0
05/03:30am 21.5 20.9 17.5 78 2.5 SSE 17 28 9 15 1016.9 1016.9 0.0
05/03:00am 21.7 19.1 17.9 79 2.4 SE 28 35 15 19 1016.7 1016.7 0.0
05/02:30am 21.8 18.5 18.0 79 2.4 SE 32 39 17 21 1016.8 1016.8 0.0
05/02:00am 21.9 19.5 18.3 80 2.2 ESE 28 35 15 19 1017.0 1017.0 0.0
05/01:30am 22.0 19.4 17.8 77 2.6 ESE 28 35 15 19 1017.4 1017.4 0.0
05/01:00am 22.2 20.5 18.2 78 2.5 ESE 24 32 13 17 1017.6 1017.6 0.0
05/12:30am 21.9 20.1 17.9 78 2.5 SE 24 33 13 18 1017.8 1017.8 0.0
05/12:00am 21.9 20.2 17.3 75 2.8 ESE 22 32 12 17 1017.8 1017.8 0.0
 
Date/Time
EST
Temp
°C
App
Temp
°C
Dew
Point
Rel
Hum
%
Delta-T
°C
Wind Press
QNH
hPa
Press
MSL
hPa
Rain
since 9 am
mm
Dir
 
Spd
km/h
Gust
km/h
Spd
kts
Gust
kts
04/11:30pm 21.8 20.0 17.8 78 2.5 ESE 24 35 13 19 1017.9 1017.9 0.0
04/11:00pm 21.7 19.9 17.9 79 2.4 ESE 24 39 13 21 1017.9 1017.9 0.0
04/10:30pm 19.9 21.6 17.1 84 1.7 WSW 4 11 2 6 1018.4 1018.4 0.0
04/10:00pm 19.8 19.6 16.8 83 1.8 SW 13 15 7 8 1018.6 1018.6 0.0
04/09:30pm 21.4 22.1 18.0 81 2.1 SSW 11 15 6 8 1018.5 1018.5 0.0
04/09:00pm 21.4 21.6 17.6 79 2.3 SSE 13 20 7 11 1018.5 1018.5 0.0
04/08:30pm 21.3 21.7 17.3 78 2.5 SE 11 15 6 8 1018.3 1018.3 0.0
04/08:00pm 21.2 21.5 17.0 77 2.6 ESE 11 20 6 11 1018.1 1018.1 0.0
04/07:30pm 20.9 21.4 16.5 76 2.7 SE 9 11 5 6 1017.9 1017.9 0.0
04/07:00pm 20.7 21.0 16.1 75 2.8 SE 9 15 5 8 1017.9 1017.9 0.0
04/06:30pm 20.6 20.7 15.6 73 3.0 ESE 9 15 5 8 1017.4 1017.4 0.0
04/06:00pm 20.7 19.2 15.3 71 3.2 ESE 17 24 9 13 1017.3 1017.3 0.0
04/05:30pm 20.9 19.6 14.8 68 3.6 S 15 17 8 9 1017.2 1017.2 0.0
04/05:00pm 20.8 19.9 14.9 69 3.5 S 13 17 7 9 1017.1 1017.1 0.0
04/04:30pm 20.7 19.0 14.8 69 3.5 S 17 20 9 11 1017.1 1017.1 0.0
04/04:00pm 20.7 19.0 14.6 68 3.6 S 17 22 9 12 1016.9 1016.9 0.0
04/03:30pm 20.7 19.7 14.6 68 3.6 S 13 20 7 11 1016.8 1016.8 0.0
04/03:00pm 20.6 18.9 14.7 69 3.5 S 17 19 9 10 1017.0 1017.0 0.0
04/02:30pm 20.3 19.0 14.7 70 3.3 SSW 15 19 8 10 1017.2 1017.2 0.0
04/02:00pm 20.3 18.6 14.7 70 3.3 S 17 20 9 11 1017.3 1017.3 0.0
04/01:30pm 20.1 17.7 14.5 70 3.3 S 20 24 11 13 1017.6 1017.6 0.0
04/01:00pm 19.9 17.4 14.0 69 3.4 S 20 26 11 14 1018.2 1018.2 0.0
04/12:30pm 19.9 17.0 14.0 69 3.4 S 22 26 12 14 1018.9 1018.9 0.0
04/12:00pm 19.6 16.1 13.5 68 3.5 S 24 28 13 15 1019.3 1019.3 0.0
04/11:30am 19.5 16.4 13.4 68 3.5 S 22 26 12 14 1019.7 1019.7 0.0
04/11:00am 19.3 16.5 13.2 68 3.4 S 20 26 11 14 1019.9 1019.9 0.0
04/10:30am 19.3 16.0 13.9 71 3.1 S 24 30 13 16 1020.0 1020.0 0.0
04/10:00am 19.1 15.3 13.7 71 3.1 S 26 32 14 17 1020.1 1020.1 0.0
04/09:30am 19.1 15.8 13.9 72 3.0 S 24 30 13 16 1019.9 1019.9 0.0
04/09:00am 19.1 15.8 14.1 73 2.9 S 24 32 13 17 1019.7 1019.7 0.0
04/08:30am 18.9 15.3 14.2 74 2.7 S 26 32 14 17 1019.4 1019.4 0.0
04/08:00am 19.3 17.3 13.9 71 3.1 S 17 24 9 13 1019.0 1019.0 0.0
04/07:30am 19.0 16.5 14.1 73 2.8 SSE 20 30 11 16 1018.7 1018.7 0.0
04/07:00am 18.9 15.1 14.6 76 2.5 S 28 39 15 21 1018.3 1018.3 0.0
04/06:30am 19.5 17.7 14.5 73 2.9 S 17 26 9 14 1018.1 1018.1 0.0
04/06:00am 19.4 16.9 13.6 69 3.3 S 19 28 10 15 1017.9 1017.9 0.0
04/05:30am 19.7 17.3 14.3 71 3.1 SE 20 35 11 19 1017.8 1017.8 0.0
04/05:00am 19.8 16.7 14.4 71 3.1 SE 24 39 13 21 1017.6 1017.6 0.0
04/04:30am 20.5 17.0 14.4 68 3.6 ESE 26 39 14 21 1017.3 1017.3 0.0
04/04:00am 20.8 16.6 13.5 63 4.2 SE 28 35 15 19 1017.3 1017.3 0.0
04/03:30am 20.7 15.7 12.1 58 4.8 SE 30 39 16 21 1017.2 1017.2 0.0
04/03:00am 20.8 16.0 12.8 60 4.5 ESE 30 39 16 21 1017.4 1017.4 0.0
04/02:30am 20.8 18.2 13.7 64 4.1 SE 20 32 11 17 1017.7 1017.7 0.0
04/02:00am 20.8 18.9 14.2 66 3.8 SSE 17 24 9 13 1017.9 1017.9 0.0
04/01:30am 20.7 18.8 14.1 66 3.8 SSE 17 26 9 14 1018.2 1018.2 0.0
04/01:00am 20.9 18.2 14.5 67 3.7 SE 22 33 12 18 1018.5 1018.5 0.0
04/12:30am 21.1 17.2 14.5 66 3.9 SE 28 35 15 19 1018.8 1018.8 0.0
04/12:00am 21.0 17.9 14.4 66 3.8 ESE 24 35 13 19 1018.8 1018.8 0.0
 
Date/Time
EST
Temp
°C
App
Temp
°C
Dew
Point
Rel
Hum
%
Delta-T
°C
Wind Press
QNH
hPa
Press
MSL
hPa
Rain
since 9 am
mm
Dir
 
Spd
km/h
Gust
km/h
Spd
kts
Gust
kts
03/11:30pm 21.1 17.4 13.8 63 4.2 ESE 26 37 14 20 1019.0 1019.0 0.0
03/11:00pm 21.2 17.3 13.4 61 4.5 ESE 26 39 14 21 1019.4 1019.4 0.0
03/10:30pm 21.1 17.5 14.3 65 4.0 ESE 26 35 14 19 1019.3 1019.3 0.0
03/10:00pm 21.2 18.1 14.4 65 4.0 ESE 24 32 13 17 1019.1 1019.1 0.0

Other Formats:

Comma delimited format used in spreadsheet applications
http://www.bom.gov.au/fwo/IDQ60801/IDQ60801.94295.axf

JavaScript Object Notation format (JSON) in row-major order
http://www.bom.gov.au/fwo/IDQ60801/IDQ60801.94295.json